Meteo Giornale » Osservazioni meteo Stati Uniti (USA) » China Lake
ore: 14:56 - Osservazioni Meteo China Lake
Lat. 35° 41' N Lon. 117° 41' W Alt. 696 metri s.l.m.
33 °C
Sereno
Temp. 24 Ore
20 °C
35 °C
Sud
31.5 Km/h
Dew point -9 °C
Umidità 6 %
Visibilità 10 Km
Il sole sorge alle ore 06:23
Il sole tramonta alle ore 19:18
| Data e Ora | Cielo e Fenomeni | T °C | DP °C | Um. % | Pres. hPa | Vis. km | Vento km/h | |
|---|---|---|---|---|---|---|---|---|
| Oggi h: 14:56 | Sereno | 33 | -9 | 6 | 1011 | 10 | S 31.5 | |
| Oggi h: 13:56 | Sereno | 32 | -10 | 6 | 1012 | 10 | S 35.2 | |
| Oggi h: 12:56 | Sereno | 32 | -9 | 6 | 1013 | 10 | S/SO 37 | |
| Oggi h: 11:56 | Sereno | 31 | -9 | 6 | 1014 | 10 | S/SO 35.2 | |
| Oggi h: 10:56 | Sereno | 29 | -9 | 7 | 1014 | 10 | S 35.2 | |
| Oggi h: 09:56 | Sereno | 27 | -9 | 8 | 1014 | 10 | S 33.3 | |
| Oggi h: 08:56 | Sereno | 23 | 0 | 21 | 1015 | 10 | N 9.3 | |
| Oggi h: 07:56 | Sereno | 22 | -7 | 13 | 1015 | 10 | O/SO 14.8 | |
| Oggi h: 06:56 | Sereno | 20 | -7 | 15 | 1014 | 10 | SO 18.5 | |
| Oggi h: 05:56 | Sereno | 20 | -15 | 8 | 1014 | 10 | SO 24 | |
| Oggi h: 04:56 | Sereno | 21 | -8 | 13 | 1013 | 10 | S 25.9 | |
| Oggi h: 03:56 | Sereno | 21 | -4 | 18 | 1012 | 10 | S/SO 20.3 | |
| Oggi h: 02:56 | Sereno | 22 | -4 | 17 | 1012 | 10 | S/SO 24 | |
| Oggi h: 01:56 | Sereno | 23 | -2 | 18 | 1012 | 10 | S/SO 22.2 | |
| Oggi h: 00:56 | Sereno | 23 | 0 | 21 | 1012 | 10 | S/SO 27.8 | |
| Ieri h: 22:56 | Sereno | 24 | 2 | 23 | 1012 | 10 | S 29.6 | |
| Ieri h: 21:56 | Sereno | 26 | 4 | 24 | 1012 | 10 | S/SO 33.3 | |
| Ieri h: 20:56 | Sereno | 26 | 5 | 25 | 1011 | 10 | S/SO 42.6 | |
| Ieri h: 19:56 | Sereno | 28 | 6 | 24 | 1010 | 10 | S/SO 38.8 | |
| Ieri h: 18:56 | Sereno | 30 | 4 | 19 | 1009 | 10 | S/SO 37 | |
| Ieri h: 17:56 | Sereno | 32 | 2 | 14 | 1009 | 10 | S/SO 42.6 | |
| Ieri h: 16:56 | Sereno | 34 | -3 | 9 | 1009 | 10 | S 38.8 | |
| Ieri h: 15:56 | Sereno | 35 | -5 | 7 | 1010 | 10 | S 33.3 | |



